createdAt,value
2022-10-17T00:01:21.526Z,14.69
2022-10-17T00:03:53.537Z,14.72
2022-10-17T00:06:25.481Z,14.69
2022-10-17T00:08:57.499Z,14.81
2022-10-17T00:11:29.483Z,14.83
2022-10-17T00:14:01.560Z,14.91
2022-10-17T00:16:39.548Z,14.86
2022-10-17T00:19:11.534Z,14.87
2022-10-17T00:21:43.413Z,14.82
2022-10-17T00:24:15.469Z,14.86
2022-10-17T00:26:47.373Z,14.89
2022-10-17T00:29:19.370Z,14.90
2022-10-17T00:31:56.443Z,14.94
2022-10-17T00:34:30.322Z,14.94
2022-10-17T00:37:02.260Z,14.92
2022-10-17T00:39:34.188Z,14.91
2022-10-17T00:42:06.535Z,14.88
2022-10-17T00:44:41.460Z,14.87
2022-10-17T00:47:21.944Z,14.88
2022-10-17T00:49:53.946Z,14.87
2022-10-17T00:52:29.719Z,14.89
2022-10-17T00:55:32.014Z,14.81
2022-10-17T00:58:06.755Z,14.82
2022-10-17T01:00:38.766Z,14.82
2022-10-17T01:03:10.664Z,14.80
2022-10-17T01:05:43.037Z,14.80
2022-10-17T01:08:15.039Z,14.81
2022-10-17T01:11:17.761Z,14.79
2022-10-17T01:13:57.318Z,14.81
2022-10-17T01:16:53.672Z,14.83
2022-10-17T01:20:02.534Z,14.86
2022-10-17T01:22:47.526Z,14.89
2022-10-17T01:25:54.400Z,14.89
2022-10-17T01:29:26.325Z,14.89
2022-10-17T01:32:11.762Z,14.93
2022-10-17T01:35:14.287Z,14.95
2022-10-17T01:37:56.059Z,14.91
2022-10-17T01:40:56.204Z,14.87
2022-10-17T01:43:45.376Z,14.85
2022-10-17T01:46:27.395Z,14.81
2022-10-17T01:49:02.073Z,14.77
2022-10-17T01:51:41.483Z,14.79
2022-10-17T01:54:27.627Z,14.79
2022-10-17T01:57:04.992Z,14.79
2022-10-17T01:59:42.151Z,14.79
2022-10-17T02:02:15.577Z,14.82
2022-10-17T02:04:50.214Z,14.81
2022-10-17T02:07:22.203Z,14.79
2022-10-17T02:09:54.101Z,14.78
2022-10-17T02:12:47.792Z,14.75
2022-10-17T02:15:36.184Z,14.73
2022-10-17T02:18:22.027Z,14.74
2022-10-17T02:21:01.504Z,14.71
2022-10-17T02:24:21.144Z,14.74
2022-10-17T02:27:15.515Z,14.77
2022-10-17T02:29:56.833Z,14.72
2022-10-17T02:32:53.051Z,14.68
2022-10-17T02:35:31.813Z,14.68
2022-10-17T02:38:07.063Z,14.67
2022-10-17T02:40:41.196Z,14.64
2022-10-17T02:43:14.663Z,14.61
2022-10-17T02:45:47.379Z,14.58
2022-10-17T02:48:43.115Z,14.52
2022-10-17T02:51:40.816Z,14.48
2022-10-17T02:54:36.159Z,14.44
2022-10-17T02:57:36.288Z,14.42
2022-10-17T03:00:12.508Z,14.42
2022-10-17T03:02:48.526Z,14.39
2022-10-17T03:05:24.373Z,14.40
2022-10-17T03:07:57.019Z,14.39
2022-10-17T03:10:28.913Z,14.37
2022-10-17T03:13:00.799Z,14.33
2022-10-17T03:15:32.844Z,14.30
2022-10-17T03:18:04.727Z,14.28
2022-10-17T03:20:36.705Z,14.27
2022-10-17T03:23:08.747Z,14.18
2022-10-17T03:25:41.040Z,14.19
2022-10-17T03:28:12.927Z,14.18
2022-10-17T03:30:44.845Z,14.10
2022-10-17T03:33:16.775Z,14.10
2022-10-17T03:38:40.861Z,14.07
2022-10-17T03:41:13.513Z,14.11
2022-10-17T03:43:45.507Z,14.10
2022-10-17T03:48:50.293Z,14.07
2022-10-17T03:51:22.335Z,14.09
2022-10-17T03:53:54.382Z,14.10
2022-10-17T03:56:26.690Z,14.04
2022-10-17T03:58:58.696Z,14.07
2022-10-17T04:01:30.744Z,14.08
2022-10-17T04:04:02.750Z,14.07
2022-10-17T04:06:35.264Z,14.09
2022-10-17T04:09:07.764Z,14.05
2022-10-17T04:11:39.990Z,13.98
2022-10-17T04:14:12.043Z,14.00
2022-10-17T04:16:44.058Z,14.04
2022-10-17T04:19:16.165Z,14.01
2022-10-17T04:21:50.888Z,13.98
2022-10-17T04:24:22.877Z,13.99
2022-10-17T04:26:55.163Z,14.04
2022-10-17T04:29:27.306Z,14.05
2022-10-17T04:31:59.217Z,14.05
2022-10-17T04:34:31.125Z,14.05
2022-10-17T04:37:03.122Z,14.05
2022-10-17T04:39:35.021Z,14.04
2022-10-17T04:42:06.993Z,14.02
2022-10-17T04:44:38.944Z,13.99
2022-10-17T04:47:10.886Z,13.97
2022-10-17T04:49:42.817Z,14.02
2022-10-17T04:52:14.758Z,13.99
2022-10-17T04:54:46.774Z,13.94
2022-10-17T04:57:20.072Z,13.98
2022-10-17T04:59:52.011Z,13.93
2022-10-17T05:02:23.964Z,13.88
2022-10-17T05:04:55.892Z,13.92
2022-10-17T05:07:27.868Z,13.92
2022-10-17T05:09:59.845Z,13.90
2022-10-17T05:12:31.938Z,13.88
2022-10-17T05:15:04.536Z,13.92
2022-10-17T05:17:36.436Z,13.90
2022-10-17T05:20:10.036Z,13.87
2022-10-17T05:22:42.403Z,13.84
2022-10-17T05:25:14.609Z,13.86
2022-10-17T05:27:46.814Z,13.89
2022-10-17T05:30:18.874Z,13.82
2022-10-17T05:32:54.726Z,13.80
2022-10-17T05:35:26.693Z,13.79
2022-10-17T05:37:59.187Z,13.77
2022-10-17T05:40:31.119Z,13.82
2022-10-17T05:43:03.011Z,13.85
2022-10-17T05:45:36.634Z,13.76
2022-10-17T05:48:09.176Z,13.82
2022-10-17T05:50:41.076Z,13.84
2022-10-17T05:53:13.124Z,13.85
2022-10-17T05:55:45.034Z,13.79
2022-10-17T05:58:22.283Z,13.73
2022-10-17T06:01:07.133Z,13.77
2022-10-17T06:03:41.393Z,13.81
2022-10-17T06:06:14.842Z,13.78
2022-10-17T06:08:46.841Z,13.89
2022-10-17T06:11:18.794Z,13.95
2022-10-17T06:13:50.834Z,13.93
2022-10-17T06:16:23.095Z,13.89
2022-10-17T06:18:55.091Z,13.87
2022-10-17T06:21:28.318Z,13.86
2022-10-17T06:24:00.277Z,13.99
2022-10-17T06:26:32.207Z,14.10
2022-10-17T06:29:04.466Z,14.13
2022-10-17T06:31:36.488Z,14.11
2022-10-17T06:34:08.387Z,14.17
2022-10-17T06:36:40.313Z,14.18
2022-10-17T06:39:12.306Z,14.17
2022-10-17T06:41:44.744Z,14.23
2022-10-17T06:44:16.766Z,14.23
2022-10-17T06:46:48.822Z,14.28
2022-10-17T06:49:20.793Z,14.33
2022-10-17T06:51:52.859Z,14.37
2022-10-17T06:54:24.875Z,14.48
2022-10-17T06:56:57.088Z,14.53
2022-10-17T06:59:28.997Z,14.46
2022-10-17T07:02:05.376Z,14.52
2022-10-17T07:04:37.749Z,14.66
2022-10-17T07:07:09.636Z,14.75
2022-10-17T07:09:41.554Z,14.87
2022-10-17T07:12:13.520Z,15.03
2022-10-17T07:14:47.340Z,15.08
2022-10-17T07:17:19.324Z,15.18
2022-10-17T07:19:51.313Z,15.17
2022-10-17T07:22:23.208Z,15.17
2022-10-17T07:24:55.160Z,15.19
2022-10-17T07:27:27.334Z,15.26
2022-10-17T07:29:59.472Z,15.38
2022-10-17T07:32:31.381Z,15.58
2022-10-17T07:35:03.401Z,15.60
2022-10-17T07:37:35.699Z,15.64
2022-10-17T07:40:09.254Z,15.73
2022-10-17T07:42:41.170Z,15.87
2022-10-17T07:45:13.164Z,15.93
2022-10-17T07:47:45.100Z,15.82
2022-10-17T07:50:17.187Z,15.77
2022-10-17T07:52:49.141Z,15.86
2022-10-17T07:55:21.172Z,15.94
2022-10-17T07:57:53.281Z,15.94
2022-10-17T08:00:25.331Z,15.96
2022-10-17T08:02:57.307Z,15.90
2022-10-17T08:05:30.455Z,15.98
2022-10-17T08:08:02.565Z,16.13
2022-10-17T08:10:34.535Z,16.12
2022-10-17T08:13:06.499Z,16.26
2022-10-17T08:15:39.106Z,16.30
2022-10-17T08:18:11.133Z,16.38
2022-10-17T08:20:43.399Z,16.40
2022-10-17T08:23:15.534Z,16.39
2022-10-17T08:25:47.764Z,16.49
2022-10-17T08:28:19.656Z,16.53
2022-10-17T08:30:52.968Z,16.64
2022-10-17T08:33:24.971Z,16.69
2022-10-17T08:36:00.176Z,16.74
2022-10-17T08:38:35.641Z,16.86
2022-10-17T08:41:35.615Z,17.08
2022-10-17T08:44:32.457Z,17.14
2022-10-17T08:47:13.816Z,17.30
2022-10-17T08:49:51.536Z,17.45
2022-10-17T08:52:57.268Z,17.56
2022-10-17T08:55:46.851Z,17.72
2022-10-17T08:58:27.440Z,17.83
2022-10-17T09:01:38.710Z,17.92
2022-10-17T09:04:53.100Z,18.05
2022-10-17T09:07:42.096Z,18.24
2022-10-17T09:10:20.625Z,18.33
2022-10-17T09:17:07.265Z,18.75
2022-10-17T09:20:20.529Z,18.78
2022-10-17T09:23:16.806Z,18.77
2022-10-17T09:25:54.986Z,18.92
2022-10-17T09:28:34.102Z,19.02
2022-10-17T09:31:23.134Z,19.05
2022-10-17T09:33:58.165Z,19.23
2022-10-17T09:36:36.754Z,19.31
2022-10-17T09:39:24.733Z,19.24
2022-10-17T09:41:59.778Z,19.41
2022-10-17T09:44:47.966Z,19.56
2022-10-17T09:47:45.871Z,19.67
2022-10-17T09:50:25.976Z,19.99
2022-10-17T09:53:08.623Z,20.14
2022-10-17T09:55:48.393Z,20.27
2022-10-17T09:58:21.292Z,20.31
2022-10-17T10:00:53.361Z,20.32
2022-10-17T10:03:27.376Z,20.24
2022-10-17T10:06:03.091Z,20.30
2022-10-17T10:08:49.809Z,20.34
2022-10-17T10:11:57.368Z,20.37
2022-10-17T10:14:36.460Z,20.30
2022-10-17T10:17:37.740Z,20.23
2022-10-17T10:20:37.644Z,20.07
2022-10-17T10:23:19.638Z,20.00
2022-10-17T10:25:58.830Z,20.00
2022-10-17T10:28:36.228Z,20.11
2022-10-17T10:31:09.978Z,20.20
2022-10-17T10:33:47.007Z,20.23
2022-10-17T10:36:23.150Z,20.43
2022-10-17T10:39:01.243Z,20.49
2022-10-17T10:41:48.281Z,20.59
2022-10-17T10:44:24.962Z,20.52
2022-10-17T10:47:17.737Z,20.36
2022-10-17T10:49:53.033Z,20.33
2022-10-17T10:52:35.361Z,20.32
2022-10-17T10:55:52.772Z,20.25
2022-10-17T10:58:40.294Z,20.23
2022-10-17T11:01:30.916Z,20.22
2022-10-17T11:04:47.540Z,20.22
2022-10-17T11:07:33.883Z,20.13
2022-10-17T11:10:37.870Z,20.06
2022-10-17T11:13:34.265Z,19.93
2022-10-17T11:16:49.545Z,19.84
2022-10-17T11:19:37.835Z,19.19
2022-10-17T11:22:23.996Z,18.82
2022-10-17T11:25:29.262Z,18.49
2022-10-17T11:28:09.269Z,18.26
2022-10-17T11:30:56.737Z,18.18
2022-10-17T11:34:00.105Z,18.11
2022-10-17T11:36:40.972Z,18.19
2022-10-17T11:39:41.015Z,18.20
2022-10-17T11:42:25.831Z,18.23
2022-10-17T11:45:10.829Z,18.26
2022-10-17T11:47:55.477Z,18.28
2022-10-17T11:53:58.420Z,18.34
2022-10-17T11:56:46.937Z,18.28
2022-10-17T11:59:45.729Z,18.28
2022-10-17T12:02:49.457Z,18.30
2022-10-17T12:05:43.148Z,18.29
2022-10-17T12:08:39.392Z,18.32
2022-10-17T12:11:30.767Z,18.20
2022-10-17T12:14:05.868Z,18.11
2022-10-17T12:19:37.662Z,18.00
2022-10-17T12:22:26.540Z,17.98
2022-10-17T12:25:02.285Z,17.97
2022-10-17T12:27:48.603Z,17.92
2022-10-17T12:30:27.969Z,17.95
2022-10-17T12:33:38.913Z,17.96
2022-10-17T12:36:22.924Z,18.02
2022-10-17T12:39:03.608Z,18.06
2022-10-17T12:41:41.481Z,18.12
2022-10-17T12:44:13.319Z,18.08
2022-10-17T12:46:51.278Z,18.04
2022-10-17T12:49:46.899Z,18.05
2022-10-17T12:52:35.262Z,18.06
2022-10-17T12:55:14.670Z,18.08
2022-10-17T12:58:03.987Z,18.09
2022-10-17T13:01:18.767Z,18.16
2022-10-17T13:03:49.409Z,18.15
2022-10-17T13:06:27.373Z,18.14
2022-10-17T13:09:05.676Z,18.09
2022-10-17T13:11:39.681Z,18.06
2022-10-17T13:14:17.664Z,18.05
2022-10-17T13:17:02.450Z,18.05
2022-10-17T13:19:46.394Z,18.04
2022-10-17T13:22:21.526Z,18.00
2022-10-17T13:25:16.629Z,17.98
2022-10-17T13:27:49.772Z,18.00
2022-10-17T13:30:36.477Z,18.02
2022-10-17T13:33:40.197Z,17.99
2022-10-17T13:36:18.909Z,18.04
2022-10-17T13:38:50.975Z,18.06
2022-10-17T13:41:37.039Z,18.08
2022-10-17T13:44:19.129Z,18.02
2022-10-17T13:46:51.977Z,18.05
2022-10-17T13:49:34.672Z,18.08
2022-10-17T13:52:15.924Z,18.09
2022-10-17T13:54:51.263Z,18.12
2022-10-17T13:57:30.122Z,18.12
2022-10-17T14:00:10.051Z,18.05
2022-10-17T14:02:44.884Z,18.09
2022-10-17T14:05:19.690Z,18.12
2022-10-17T14:10:53.396Z,18.01
2022-10-17T14:13:30.417Z,17.97
2022-10-17T14:16:04.323Z,18.04
2022-10-17T14:18:37.955Z,18.04
2022-10-17T14:24:30.244Z,18.02
2022-10-17T14:27:02.089Z,18.00
2022-10-17T14:29:53.446Z,18.04
2022-10-17T14:32:25.497Z,17.98
2022-10-17T14:35:17.846Z,17.94
2022-10-17T14:37:54.095Z,17.91
2022-10-17T14:40:28.702Z,17.91
2022-10-17T14:43:05.730Z,17.91
2022-10-17T14:45:40.028Z,17.90
2022-10-17T14:48:19.469Z,17.81
2022-10-17T14:51:11.481Z,17.82
2022-10-17T14:54:20.139Z,17.85
2022-10-17T14:56:55.059Z,17.87
2022-10-17T14:59:53.737Z,17.83
2022-10-17T15:02:19.128Z,17.75
2022-10-17T15:04:51.195Z,17.82
2022-10-17T15:07:24.021Z,17.80
2022-10-17T15:09:56.033Z,17.79
2022-10-17T15:12:28.384Z,17.75
2022-10-17T15:15:00.510Z,17.77
2022-10-17T15:17:34.784Z,17.82
2022-10-17T15:20:16.403Z,17.84
2022-10-17T15:22:48.733Z,17.80
2022-10-17T15:25:22.438Z,17.84
2022-10-17T15:27:54.811Z,17.81
2022-10-17T15:30:32.068Z,17.79
2022-10-17T15:33:04.233Z,17.75
2022-10-17T15:35:37.050Z,17.72
2022-10-17T15:38:11.619Z,17.76
2022-10-17T15:40:43.731Z,17.68
2022-10-17T15:43:19.643Z,17.65
2022-10-17T15:45:51.921Z,17.66
2022-10-17T15:48:30.051Z,17.69
2022-10-17T15:51:01.979Z,17.63
2022-10-17T15:53:34.286Z,17.61
2022-10-17T15:56:07.211Z,17.61
2022-10-17T15:58:40.794Z,17.59
2022-10-17T16:01:24.353Z,17.59
2022-10-17T16:03:56.778Z,17.55
2022-10-17T16:06:29.178Z,17.49
2022-10-17T16:09:01.125Z,17.53
2022-10-17T16:11:41.705Z,17.54
2022-10-17T16:14:16.276Z,17.58
2022-10-17T16:16:48.193Z,17.52
2022-10-17T16:19:21.015Z,17.55
2022-10-17T16:21:53.378Z,17.57
2022-10-17T16:24:25.596Z,17.54
2022-10-17T16:26:57.562Z,17.54
2022-10-17T16:29:29.553Z,17.46
2022-10-17T16:32:01.464Z,17.47
2022-10-17T16:34:33.477Z,17.43
2022-10-17T16:37:05.533Z,17.43
2022-10-17T16:39:37.467Z,17.44
2022-10-17T16:42:09.617Z,17.44
2022-10-17T16:44:41.572Z,17.42
2022-10-17T16:47:13.665Z,17.47
2022-10-17T16:49:46.082Z,17.46
2022-10-17T16:52:18.267Z,17.46
2022-10-17T16:54:50.912Z,17.48
2022-10-17T16:57:22.924Z,17.48
2022-10-17T16:59:54.946Z,17.44
2022-10-17T17:02:26.900Z,17.47
2022-10-17T17:04:58.795Z,17.50
2022-10-17T17:07:31.006Z,17.35
2022-10-17T17:10:03.876Z,17.41
2022-10-17T17:12:36.878Z,17.43
2022-10-17T17:15:08.991Z,17.43
2022-10-17T17:17:56.611Z,17.45
2022-10-17T17:20:29.106Z,17.35
2022-10-17T17:23:01.097Z,17.36
2022-10-17T17:25:35.077Z,17.38
2022-10-17T17:28:07.634Z,17.37
2022-10-17T17:30:39.595Z,17.34
2022-10-17T17:33:14.648Z,17.35
2022-10-17T17:35:55.519Z,17.34
2022-10-17T17:38:33.394Z,17.39
2022-10-17T17:41:14.859Z,17.38
2022-10-17T17:43:48.011Z,17.38
2022-10-17T17:46:26.191Z,17.33
2022-10-17T17:48:58.125Z,17.32
2022-10-17T17:51:38.917Z,17.30
2022-10-17T17:54:12.733Z,17.26
2022-10-17T17:56:44.840Z,17.24
2022-10-17T17:59:19.159Z,17.20
2022-10-17T18:01:54.872Z,17.20
2022-10-17T18:04:28.262Z,17.17
2022-10-17T18:07:00.940Z,17.14
2022-10-17T18:09:33.000Z,17.11
2022-10-17T18:12:05.370Z,17.03
2022-10-17T18:14:37.551Z,17.02
2022-10-17T18:17:09.473Z,17.03
2022-10-17T18:19:41.457Z,17.03
2022-10-17T18:22:13.559Z,17.01
2022-10-17T18:24:45.463Z,17.00
2022-10-17T18:27:17.507Z,16.97
2022-10-17T18:29:50.525Z,16.97
2022-10-17T18:32:22.556Z,16.93
2022-10-17T18:34:57.075Z,16.88
2022-10-17T18:37:29.262Z,16.85
2022-10-17T18:40:03.200Z,16.83
2022-10-17T18:42:35.342Z,16.79
2022-10-17T18:45:08.505Z,16.77
2022-10-17T18:47:47.263Z,16.74
2022-10-17T18:50:24.657Z,16.72
2022-10-17T18:52:56.750Z,16.69
2022-10-17T18:55:34.115Z,16.66
2022-10-17T18:58:08.458Z,16.67
2022-10-17T19:00:58.188Z,16.68
2022-10-17T19:03:31.039Z,16.65
2022-10-17T19:06:07.371Z,16.65
2022-10-17T19:08:43.527Z,16.64
2022-10-17T19:11:25.501Z,16.63
2022-10-17T19:14:03.064Z,16.63
2022-10-17T19:16:37.293Z,16.63
2022-10-17T19:19:23.426Z,16.61
2022-10-17T19:21:58.089Z,16.56
2022-10-17T19:24:32.925Z,16.55
2022-10-17T19:27:13.560Z,16.56
2022-10-17T19:29:50.792Z,16.55
2022-10-17T19:32:23.104Z,16.54
2022-10-17T19:34:56.384Z,16.53
2022-10-17T19:37:32.301Z,16.55
2022-10-17T19:40:10.475Z,16.54
2022-10-17T19:42:44.214Z,16.55
2022-10-17T19:45:19.334Z,16.57
2022-10-17T19:47:56.013Z,16.51
2022-10-17T19:50:31.125Z,16.47
2022-10-17T19:53:03.052Z,16.47
2022-10-17T19:55:35.106Z,16.44
2022-10-17T19:58:07.117Z,16.44
2022-10-17T20:00:39.045Z,16.42
2022-10-17T20:03:13.888Z,16.41
2022-10-17T20:05:46.649Z,16.44
2022-10-17T20:08:21.867Z,16.42
2022-10-17T20:10:57.053Z,16.41
2022-10-17T20:13:29.039Z,16.38
2022-10-17T20:16:03.551Z,16.38
2022-10-17T20:18:38.431Z,16.35
2022-10-17T20:21:14.356Z,16.34
2022-10-17T20:23:51.079Z,16.33
2022-10-17T20:26:36.886Z,16.25
2022-10-17T20:29:19.698Z,16.27
2022-10-17T20:31:54.514Z,16.22
2022-10-17T20:34:26.606Z,16.22
2022-10-17T20:36:58.605Z,16.21
2022-10-17T20:39:30.784Z,16.21
2022-10-17T20:42:02.806Z,16.21
2022-10-17T20:44:34.932Z,16.20
2022-10-17T20:47:15.950Z,16.22
2022-10-17T20:49:48.441Z,16.16
2022-10-17T20:52:20.359Z,16.16
2022-10-17T20:54:52.263Z,16.17
2022-10-17T20:57:24.258Z,16.16
2022-10-17T20:59:56.145Z,16.10
2022-10-17T21:02:28.183Z,16.07
2022-10-17T21:05:00.129Z,16.08
2022-10-17T21:07:32.500Z,16.07
2022-10-17T21:10:30.607Z,16.04
2022-10-17T21:12:59.792Z,16.04
2022-10-17T21:15:32.130Z,16.05
2022-10-17T21:18:04.130Z,16.07
2022-10-17T21:20:36.042Z,16.06
2022-10-17T21:23:07.952Z,16.00
2022-10-17T21:25:42.251Z,15.98
2022-10-17T21:28:14.207Z,15.98
2022-10-17T21:30:46.154Z,16.00
2022-10-17T21:33:18.098Z,16.01
2022-10-17T21:35:55.252Z,15.96
2022-10-17T21:38:27.197Z,15.99
2022-10-17T21:40:59.128Z,16.01
2022-10-17T21:43:31.599Z,16.03
2022-10-17T21:46:12.263Z,16.02
2022-10-17T21:48:45.922Z,16.03
2022-10-17T21:51:23.609Z,16.04
2022-10-17T21:53:57.378Z,16.02
2022-10-17T21:56:30.781Z,16.06
2022-10-17T21:59:04.128Z,16.08
2022-10-17T22:01:42.282Z,16.10
2022-10-17T22:04:17.247Z,16.08
2022-10-17T22:06:53.393Z,16.10
2022-10-17T22:09:26.763Z,16.06
2022-10-17T22:12:01.071Z,16.08
2022-10-17T22:14:33.002Z,16.06
2022-10-17T22:17:04.980Z,16.02
2022-10-17T22:19:36.896Z,16.07
2022-10-17T22:22:08.791Z,16.07
2022-10-17T22:24:40.686Z,16.05
2022-10-17T22:27:12.639Z,16.07
2022-10-17T22:29:44.546Z,16.05
2022-10-17T22:32:20.071Z,16.08
2022-10-17T22:34:54.447Z,16.06
2022-10-17T22:37:26.402Z,16.09
2022-10-17T22:39:58.342Z,16.10
2022-10-17T22:42:31.725Z,16.09
2022-10-17T22:45:04.299Z,16.11
2022-10-17T22:47:36.259Z,16.09
2022-10-17T22:50:08.792Z,16.09
2022-10-17T22:52:40.705Z,16.09
2022-10-17T22:55:12.636Z,16.09
2022-10-17T22:57:44.603Z,16.09
2022-10-17T23:00:17.990Z,16.08
2022-10-17T23:02:54.724Z,16.01
2022-10-17T23:05:26.669Z,16.06
2022-10-17T23:07:58.585Z,16.09
2022-10-17T23:10:30.503Z,16.09
2022-10-17T23:13:02.779Z,16.11
2022-10-17T23:15:35.130Z,16.11
2022-10-17T23:18:09.174Z,16.14
2022-10-17T23:20:41.151Z,16.16
2022-10-17T23:23:13.676Z,16.15
2022-10-17T23:25:46.624Z,16.16
2022-10-17T23:28:18.728Z,16.15
2022-10-17T23:30:50.655Z,16.14
2022-10-17T23:33:22.541Z,16.12
2022-10-17T23:35:54.475Z,16.10
2022-10-17T23:38:26.356Z,16.06
2022-10-17T23:40:58.301Z,16.06
2022-10-17T23:43:31.716Z,16.04
2022-10-17T23:46:05.855Z,16.02
2022-10-17T23:48:38.960Z,16.01
2022-10-17T23:51:11.440Z,16.02
2022-10-17T23:53:43.785Z,16.01
2022-10-17T23:56:15.866Z,16.01
2022-10-17T23:58:47.797Z,16.01
